Saint-Irenee, Canada
Current Conditions -  °F | °C
As of 3:00 AM on Tuesday 21 Oct 2014 (Local Time) from CYBG Reporting Station
Few Clouds Few Clouds  
Wind Chill: 25°   Ceiling: Unl
Heat Index: 30°   Visibility: 15mi
Dew Point: 25°   Wind: 5mph
Humidity: 80%   Direction: 250°WSW
Pressure: 30"   Gusts: NA
Location:  47.58°N, 70.21°W
Report Text: CYBG 210700Z 25004KT 15SM FEW038 FEW220 M01/M04 A3000 RMK SC1CI1 SLP168
Loading
Personal Weather Stations






























Interactive Weather Map
Tropical Storm Tracking
New forecast layout! Learn more

10-Day Weather Forecast

Advertisements
Track Severe Weather on mobile